Time;durP1;ratioP1;P1;durP2;ratioP2;P2;SDS_P1;SDS_P2;PMS_P1;PMS_P2;Temp;Humidity;BMP_temperature;BMP_pressure;BME280_temperature;BME280_humidity;BME280_pressure;Samples;Min_cycle;Max_cycle;Signal;HPM_P1;HPM_P2
2021/03/14 00:01:06;;;;;;;11.02;2.33;;;22.20;25.60;;;;;;5027393;28;20082;-66
2021/03/14 00:03:36;;;;;;;14.55;2.92;;;22.40;26.20;;;;;;5023156;28;20090;-65
2021/03/14 00:06:04;;;;;;;9.48;2.83;;;22.30;26.30;;;;;;5026067;28;20153;-66
2021/03/14 00:08:31;;;;;;;10.70;2.30;;;22.10;26.40;;;;;;5026934;28;20084;-66
2021/03/14 00:11:06;;;;;;;11.43;2.60;;;22.10;26.50;;;;;;5027496;28;20090;-66
2021/03/14 00:13:35;;;;;;;6.25;2.25;;;22.00;26.70;;;;;;5025730;28;20065;-66
2021/03/14 00:16:03;;;;;;;6.32;1.95;;;22.00;26.60;;;;;;5026524;28;20074;-67
2021/03/14 00:18:37;;;;;;;5.70;1.67;;;21.90;26.30;;;;;;5023957;28;20143;-67
2021/03/14 00:21:05;;;;;;;15.77;2.38;;;22.00;26.40;;;;;;5025019;28;20070;-67
2021/03/14 00:23:31;;;;;;;8.77;2.40;;;22.10;26.60;;;;;;5025409;28;20094;-68
2021/03/14 00:25:58;;;;;;;11.52;2.40;;;21.90;27.10;;;;;;5043908;28;20127;-68
2021/03/14 00:28:25;;;;;;;10.50;2.10;;;21.90;27.60;;;;;;5026304;28;20074;-66
2021/03/14 00:30:53;;;;;;;8.02;2.22;;;21.80;27.90;;;;;;5039218;28;20078;-69
2021/03/14 00:33:21;;;;;;;14.27;2.25;;;21.90;27.90;;;;;;5027247;28;20065;-65
2021/03/14 00:35:47;;;;;;;9.65;2.78;;;21.80;27.40;;;;;;5024584;28;20091;-67
2021/03/14 00:38:14;;;;;;;11.98;2.35;;;21.80;27.80;;;;;;5024341;28;20105;-67
2021/03/14 00:40:41;;;;;;;10.30;2.58;;;21.60;27.60;;;;;;5025017;28;20078;-65
2021/03/14 00:43:08;;;;;;;13.30;2.60;;;21.40;27.80;;;;;;5025691;28;20143;-67
2021/03/14 00:45:37;;;;;;;6.57;2.63;;;21.30;28.00;;;;;;5025892;28;20125;-66
2021/03/14 00:48:06;;;;;;;8.70;2.58;;;21.20;27.70;;;;;;5025874;28;20066;-67
2021/03/14 00:50:38;;;;;;;10.65;1.90;;;21.00;27.70;;;;;;5023955;28;20070;-67
2021/03/14 00:53:05;;;;;;;16.73;3.30;;;21.10;28.20;;;;;;5023796;28;21536;-68
2021/03/14 00:55:32;;;;;;;11.98;2.47;;;21.10;28.10;;;;;;5023201;28;20169;-66
2021/03/14 00:57:59;;;;;;;9.90;2.70;;;20.80;28.30;;;;;;5024284;28;20116;-66
2021/03/14 01:00:26;;;;;;;11.43;2.55;;;21.00;28.50;;;;;;5023641;28;20078;-67
2021/03/14 01:02:52;;;;;;;12.05;2.72;;;20.90;28.30;;;;;;5024494;28;20102;-67
2021/03/14 01:05:19;;;;;;;12.48;2.60;;;20.80;28.40;;;;;;5023662;28;20159;-67
2021/03/14 01:07:46;;;;;;;9.93;2.30;;;20.70;28.40;;;;;;5022275;28;20164;-66
2021/03/14 01:10:13;;;;;;;11.85;2.90;;;20.50;28.80;;;;;;5024441;28;20132;-67
2021/03/14 01:12:40;;;;;;;13.98;2.90;;;20.40;29.20;;;;;;5021866;28;20069;-66
2021/03/14 01:15:10;;;;;;;12.65;2.97;;;20.30;29.60;;;;;;5022626;28;20086;-66
2021/03/14 01:17:37;;;;;;;11.35;3.20;;;20.30;29.70;;;;;;5023621;28;20075;-66
2021/03/14 01:20:07;;;;;;;19.38;3.08;;;20.30;29.90;;;;;;5025020;28;20093;-66
2021/03/14 01:22:34;;;;;;;16.73;2.67;;;20.00;29.90;;;;;;5025453;28;20161;-67
2021/03/14 01:25:01;;;;;;;18.80;2.58;;;19.90;30.10;;;;;;5021900;28;20607;-66
2021/03/14 01:27:27;;;;;;;16.52;2.80;;;19.90;30.10;;;;;;5026190;28;20078;-66
2021/03/14 01:29:54;;;;;;;18.33;3.30;;;19.80;30.40;;;;;;5023006;28;20074;-66
2021/03/14 01:32:20;;;;;;;14.45;3.13;;;19.80;30.20;;;;;;5024782;28;20078;-67
2021/03/14 01:34:48;;;;;;;7.82;2.63;;;19.80;30.40;;;;;;5026157;28;20070;-68
2021/03/14 01:37:16;;;;;;;14.70;2.60;;;19.60;30.80;;;;;;5027011;28;20426;-67
2021/03/14 01:39:44;;;;;;;18.00;3.67;;;19.60;31.20;;;;;;5020071;28;20135;-67
2021/03/14 01:42:11;;;;;;;10.98;2.92;;;19.40;31.50;;;;;;5025053;28;20453;-68
2021/03/14 01:44:41;;;;;;;12.38;3.72;;;19.40;32.20;;;;;;5022716;28;20585;-68
2021/03/14 01:47:10;;;;;;;15.77;3.88;;;19.40;32.40;;;;;;5021888;28;20106;-67
2021/03/14 01:49:37;;;;;;;14.38;3.75;;;19.20;32.60;;;;;;5019314;28;20088;-68
2021/03/14 01:52:04;;;;;;;19.42;3.42;;;19.20;33.10;;;;;;5022719;28;20066;-67
2021/03/14 01:54:30;;;;;;;13.60;5.32;;;19.10;33.80;;;;;;5021626;28;20085;-69
2021/03/14 01:56:57;;;;;;;18.83;4.30;;;19.10;33.90;;;;;;5022125;28;20531;-68
2021/03/14 01:59:23;;;;;;;;;;;19.00;34.30;;;;;;5024996;28;20586;-67
2021/03/14 02:01:51;;;;;;;21.70;6.40;;;18.90;34.20;;;;;;5025448;28;19958;-68
2021/03/14 02:04:17;;;;;;;17.08;6.82;;;18.90;34.40;;;;;;5023662;28;20097;-68
2021/03/14 02:06:43;;;;;;;18.65;5.38;;;18.90;34.50;;;;;;5022110;28;20168;-68
2021/03/14 02:09:10;;;;;;;31.52;12.77;;;18.80;34.30;;;;;;5023338;28;20154;-68
2021/03/14 02:11:39;;;;;;;19.55;6.68;;;18.80;34.40;;;;;;5022187;28;20085;-68
2021/03/14 02:14:07;;;;;;;15.68;6.25;;;18.70;34.50;;;;;;5024152;28;20086;-68
2021/03/14 02:16:40;;;;;;;16.70;4.43;;;18.70;34.80;;;;;;5023627;28;20065;-65
2021/03/14 02:19:11;;;;;;;14.43;4.55;;;18.60;34.90;;;;;;5022484;28;20078;-67
2021/03/14 02:21:39;;;;;;;17.55;3.70;;;18.60;34.80;;;;;;5019584;28;20114;-65
2021/03/14 02:24:13;;;;;;;19.92;3.80;;;18.60;34.80;;;;;;5024059;28;20869;-65
2021/03/14 02:26:46;;;;;;;24.88;4.90;;;18.60;34.90;;;;;;5022818;28;20073;-64
2021/03/14 02:29:18;;;;;;;15.23;4.47;;;18.60;35.70;;;;;;5022627;28;20086;-65
2021/03/14 02:31:46;;;;;;;21.77;4.57;;;18.60;36.00;;;;;;5020653;28;20082;-62
2021/03/14 02:34:17;;;;;;;19.80;4.35;;;18.50;36.20;;;;;;5021133;28;20108;-63
2021/03/14 02:36:45;;;;;;;19.58;3.75;;;18.50;36.20;;;;;;5024189;28;20096;-62
2021/03/14 02:39:16;;;;;;;20.25;3.90;;;18.40;36.20;;;;;;5022059;28;20431;-64
2021/03/14 02:41:45;;;;;;;14.23;3.00;;;18.30;36.20;;;;;;5024645;28;20157;-63
2021/03/14 02:44:14;;;;;;;15.00;3.45;;;18.30;36.00;;;;;;5035455;28;20240;-66
2021/03/14 02:46:42;;;;;;;10.13;3.20;;;18.30;35.90;;;;;;5023398;28;20122;-65
2021/03/14 02:49:09;;;;;;;16.35;3.80;;;18.30;35.60;;;;;;5022458;28;20070;-66
2021/03/14 02:51:40;;;;;;;11.35;3.20;;;18.20;35.50;;;;;;5024745;28;20527;-67
2021/03/14 02:54:07;;;;;;;14.43;3.70;;;18.10;35.50;;;;;;5039858;28;20131;-65
2021/03/14 02:56:36;;;;;;;11.77;3.40;;;18.10;35.80;;;;;;5021574;28;20534;-68
2021/03/14 02:59:04;;;;;;;16.63;3.92;;;18.10;35.90;;;;;;5023530;28;20157;-67
2021/03/14 03:01:32;;;;;;;18.83;3.85;;;18.00;35.90;;;;;;5022112;28;20062;-66
2021/03/14 03:04:00;;;;;;;22.40;5.25;;;18.00;36.00;;;;;;5020703;28;20086;-64
2021/03/14 03:06:29;;;;;;;17.90;4.68;;;17.90;36.00;;;;;;5021101;28;20074;-67
2021/03/14 03:08:56;;;;;;;14.52;3.45;;;17.90;36.20;;;;;;5034096;28;20086;-68
2021/03/14 03:11:24;;;;;;;12.02;4.07;;;17.90;36.70;;;;;;5022089;28;20105;-66
2021/03/14 03:13:52;;;;;;;17.70;6.35;;;17.90;36.60;;;;;;5023574;28;20143;-64
2021/03/14 03:16:21;;;;;;;12.27;4.72;;;17.90;36.60;;;;;;5038815;28;20090;-65
2021/03/14 03:18:49;;;;;;;20.17;3.75;;;17.70;36.80;;;;;;5038538;28;20077;-66
2021/03/14 03:21:16;;;;;;;23.35;7.20;;;17.70;37.20;;;;;;5023669;28;20088;-67
2021/03/14 03:23:43;;;;;;;24.98;7.53;;;17.70;37.20;;;;;;5018850;28;20094;-65
2021/03/14 03:26:10;;;;;;;25.95;9.90;;;17.70;37.50;;;;;;5037665;28;20545;-65
2021/03/14 03:28:36;;;;;;;;;;;17.70;37.50;;;;;;5022190;28;20472;-67
2021/03/14 03:31:03;;;;;;;17.90;4.72;;;17.50;37.40;;;;;;5039251;28;19989;-66
2021/03/14 03:33:30;;;;;;;22.70;4.80;;;17.60;37.60;;;;;;5026487;28;20070;-65
2021/03/14 03:35:57;;;;;;;17.13;4.90;;;17.60;37.70;;;;;;5019654;28;20073;-66
2021/03/14 03:38:23;;;;;;;17.63;6.03;;;17.50;37.80;;;;;;5039198;28;20073;-65
2021/03/14 03:40:51;;;;;;;19.85;7.60;;;17.60;38.00;;;;;;5020400;28;20090;-65
2021/03/14 03:43:35;;;;;;;17.13;4.88;;;17.50;37.90;;;;;;5023158;28;20137;-65
2021/03/14 03:46:05;;;;;;;15.50;3.25;;;17.40;37.80;;;;;;5023999;28;20205;-64
2021/03/14 03:48:49;;;;;;;10.43;2.92;;;17.40;38.10;;;;;;5027421;28;20439;-67
2021/03/14 03:51:20;;;;;;;13.23;3.10;;;17.40;38.00;;;;;;5027809;28;20128;-66
2021/03/14 03:53:48;;;;;;;12.52;2.83;;;17.30;37.90;;;;;;5025225;28;20071;-66
2021/03/14 03:56:15;;;;;;;13.90;3.20;;;17.40;38.10;;;;;;5022953;28;20082;-67
2021/03/14 03:58:44;;;;;;;23.58;4.43;;;17.30;38.10;;;;;;5026831;28;20078;-68
2021/03/14 04:01:11;;;;;;;16.45;4.13;;;17.30;37.90;;;;;;5025834;28;20077;-67
2021/03/14 04:03:41;;;;;;;12.05;4.13;;;17.30;38.10;;;;;;5022694;28;20423;-67
2021/03/14 04:06:09;;;;;;;13.18;3.33;;;17.20;38.10;;;;;;5024501;28;20078;-67
2021/03/14 04:08:36;;;;;;;15.00;4.68;;;17.20;37.90;;;;;;5040222;28;20101;-67
2021/03/14 04:11:09;;;;;;;21.90;7.72;;;17.30;37.80;;;;;;5023072;28;20171;-67
2021/03/14 04:13:37;;;;;;;14.38;5.18;;;17.30;37.70;;;;;;5020505;28;20141;-65
2021/03/14 04:16:05;;;;;;;19.58;4.45;;;17.30;37.70;;;;;;5017569;28;20078;-66
2021/03/14 04:18:33;;;;;;;21.60;5.72;;;17.30;37.70;;;;;;5038012;28;20423;-65
2021/03/14 04:21:04;;;;;;;19.75;5.10;;;17.20;37.70;;;;;;5024212;28;20124;-68
2021/03/14 04:23:33;;;;;;;16.27;4.40;;;17.20;37.70;;;;;;5022872;28;20434;-67
2021/03/14 04:26:00;;;;;;;16.58;4.47;;;17.20;38.00;;;;;;5023456;28;20092;-68
2021/03/14 04:28:31;;;;;;;40.63;6.55;;;17.20;38.00;;;;;;5020704;28;20449;-69
2021/03/14 04:31:01;;;;;;;16.27;5.15;;;17.10;38.00;;;;;;5021089;28;20475;-66
2021/03/14 04:33:29;;;;;;;17.98;4.80;;;17.00;38.30;;;;;;5022654;28;20062;-67
2021/03/14 04:35:59;;;;;;;17.40;4.13;;;17.00;38.40;;;;;;5020932;28;20140;-66
2021/03/14 04:38:30;;;;;;;16.63;4.97;;;17.00;38.40;;;;;;5037277;28;20108;-69
2021/03/14 04:40:57;;;;;;;16.10;4.50;;;17.00;38.50;;;;;;5018657;28;20094;-66
2021/03/14 04:43:26;;;;;;;15.95;3.90;;;16.90;38.70;;;;;;5021763;28;20479;-66
2021/03/14 04:45:53;;;;;;;21.50;6.15;;;16.90;39.00;;;;;;5021295;28;20146;-67
2021/03/14 04:48:21;;;;;;;22.35;5.90;;;16.80;39.00;;;;;;5025241;28;20094;-68
2021/03/14 04:50:49;;;;;;;15.60;4.63;;;16.80;39.10;;;;;;5019753;28;20078;-67
2021/03/14 04:53:18;;;;;;;20.02;3.97;;;16.80;39.10;;;;;;5021671;28;20197;-68
2021/03/14 04:55:46;;;;;;;20.23;4.20;;;16.80;39.30;;;;;;5036703;28;20101;-67
2021/03/14 04:58:16;;;;;;;12.20;3.45;;;16.80;39.20;;;;;;5019587;28;20101;-67
2021/03/14 05:00:43;;;;;;;14.05;3.15;;;16.80;39.60;;;;;;5019725;28;20078;-67
2021/03/14 05:03:13;;;;;;;12.35;2.88;;;16.70;39.50;;;;;;5021570;28;20070;-67
2021/03/14 05:05:45;;;;;;;20.65;3.13;;;16.70;39.70;;;;;;5020736;28;20082;-67
2021/03/14 05:08:16;;;;;;;14.57;3.88;;;16.70;39.70;;;;;;5019026;28;20073;-68
2021/03/14 05:10:44;;;;;;;15.82;4.00;;;16.60;39.80;;;;;;5021724;28;20547;-69
2021/03/14 05:13:12;;;;;;;19.42;4.07;;;16.60;39.90;;;;;;5016763;28;20085;-69
2021/03/14 05:15:39;;;;;;;18.33;3.78;;;16.60;40.00;;;;;;5033493;28;20070;-67
2021/03/14 05:18:09;;;;;;;18.85;3.95;;;16.50;40.00;;;;;;5020931;28;20073;-68
2021/03/14 05:20:36;;;;;;;22.92;4.18;;;16.40;40.40;;;;;;5017239;28;20102;-67
2021/03/14 05:23:03;;;;;;;19.30;3.90;;;16.40;40.60;;;;;;5021691;28;20077;-69
2021/03/14 05:25:30;;;;;;;15.73;3.50;;;16.30;40.60;;;;;;5021379;28;20108;-68
2021/03/14 05:27:57;;;;;;;;;;;16.20;40.80;;;;;;5022552;28;20468;-65
2021/03/14 05:30:29;;;;;;;32.38;4.95;;;16.20;41.00;;;;;;5021853;28;20381;-65
2021/03/14 05:32:57;;;;;;;21.50;5.00;;;16.20;41.20;;;;;;5025008;28;20166;-66
2021/03/14 05:35:28;;;;;;;29.75;5.38;;;16.20;41.20;;;;;;5023243;28;20078;-68
2021/03/14 05:37:56;;;;;;;22.58;6.07;;;16.10;41.30;;;;;;5022632;28;20435;-67
2021/03/14 05:40:24;;;;;;;23.13;6.22;;;16.10;41.50;;;;;;5038944;28;20085;-67
2021/03/14 05:42:52;;;;;;;27.48;6.80;;;16.10;41.60;;;;;;5023683;28;20074;-67
2021/03/14 05:45:19;;;;;;;26.45;6.70;;;16.10;41.90;;;;;;5024819;28;20470;-67
2021/03/14 05:47:46;;;;;;;22.63;6.78;;;16.00;42.30;;;;;;5041138;28;20527;-68
2021/03/14 05:50:17;;;;;;;23.23;6.53;;;16.00;42.40;;;;;;5026597;28;20070;-67
2021/03/14 05:52:44;;;;;;;25.40;5.60;;;15.90;42.50;;;;;;5021912;28;20142;-67
2021/03/14 05:55:25;;;;;;;21.92;5.07;;;15.80;43.20;;;;;;5021801;28;20074;-67
2021/03/14 05:57:54;;;;;;;17.33;5.90;;;15.80;43.50;;;;;;5016752;28;20572;-68
2021/03/14 06:00:26;;;;;;;23.20;5.85;;;15.70;43.40;;;;;;5020985;28;20074;-69
2021/03/14 06:02:59;;;;;;;19.67;5.75;;;15.60;43.80;;;;;;5019141;28;20108;-68
2021/03/14 06:05:30;;;;;;;25.10;6.45;;;15.60;43.90;;;;;;5020136;28;20098;-69
2021/03/14 06:07:58;;;;;;;22.63;6.35;;;15.40;43.70;;;;;;5022316;28;20074;-68
2021/03/14 06:10:26;;;;;;;19.42;5.95;;;15.40;44.10;;;;;;5025274;28;20558;-68
2021/03/14 06:12:53;;;;;;;17.52;5.50;;;15.40;44.50;;;;;;5006504;28;20078;-68
2021/03/14 06:15:19;;;;;;;23.27;6.97;;;15.40;44.40;;;;;;5024651;28;20097;-67
2021/03/14 06:17:46;;;;;;;24.23;6.80;;;15.30;44.50;;;;;;5025431;28;20081;-69
2021/03/14 06:20:43;;;;;;;25.50;7.18;;;15.30;44.70;;;;;;5027759;28;20093;-67
2021/03/14 06:23:11;;;;;;;27.27;7.25;;;15.30;44.90;;;;;;5029661;28;20100;-67
2021/03/14 06:25:40;;;;;;;29.55;7.50;;;15.20;44.80;;;;;;5025349;28;20151;-67
2021/03/14 06:28:07;;;;;;;30.17;7.50;;;15.20;45.10;;;;;;5022174;28;20066;-68
2021/03/14 06:30:36;;;;;;;18.05;6.53;;;15.10;45.10;;;;;;5022366;28;20074;-68
2021/03/14 06:33:14;;;;;;;27.13;7.03;;;15.10;45.30;;;;;;5022519;28;20415;-68
2021/03/14 06:35:50;;;;;;;21.70;7.53;;;15.00;45.90;;;;;;5023104;28;20073;-68
2021/03/14 06:38:35;;;;;;;22.83;6.75;;;15.00;45.80;;;;;;5023146;28;20545;-67
2021/03/14 06:41:07;;;;;;;23.73;7.00;;;14.90;46.00;;;;;;5021105;28;20088;-69
2021/03/14 06:43:50;;;;;;;26.92;6.90;;;14.90;46.20;;;;;;5021692;28;20565;-67
2021/03/14 06:46:21;;;;;;;26.70;7.53;;;14.80;46.70;;;;;;5023226;28;20478;-68
2021/03/14 06:49:03;;;;;;;28.75;8.50;;;14.70;46.80;;;;;;5023677;28;20075;-67
2021/03/14 06:51:35;;;;;;;30.73;10.90;;;14.70;47.00;;;;;;5022716;28;20071;-67
2021/03/14 06:54:39;;;;;;;38.83;11.48;;;14.70;46.90;;;;;;5024371;28;20079;-67
2021/03/14 06:57:20;;;;;;;47.47;13.05;;;14.60;47.20;;;;;;5013719;28;20082;-67
2021/03/14 06:59:52;;;;;;;41.95;12.48;;;14.60;47.20;;;;;;5038255;28;20074;-67
2021/03/14 07:02:22;;;;;;;35.90;10.10;;;14.60;47.00;;;;;;5023687;28;20096;-67
2021/03/14 07:04:50;;;;;;;35.88;8.80;;;14.50;47.00;;;;;;5021759;28;20098;-68
2021/03/14 07:07:32;;;;;;;40.45;9.23;;;14.50;47.10;;;;;;5024572;28;20078;-67
2021/03/14 07:10:11;;;;;;;39.20;8.35;;;14.40;47.10;;;;;;5021279;28;20093;-68
2021/03/14 07:12:40;;;;;;;39.90;8.60;;;14.40;47.20;;;;;;5022989;28;20185;-66
2021/03/14 07:15:21;;;;;;;34.97;9.65;;;14.40;47.90;;;;;;5020569;28;20485;-66
2021/03/14 07:17:56;;;;;;;34.13;7.65;;;14.40;47.40;;;;;;5021593;28;20078;-66
2021/03/14 07:20:26;;;;;;;52.05;9.48;;;14.30;47.00;;;;;;5025578;28;20077;-67
2021/03/14 07:23:07;;;;;;;46.13;9.85;;;14.30;46.50;;;;;;5024184;28;20066;-68
2021/03/14 07:25:36;;;;;;;33.35;8.02;;;14.30;46.50;;;;;;5029695;28;20181;-67
2021/03/14 07:28:02;;;;;;;30.80;9.93;;;14.20;46.50;;;;;;5023444;28;20153;-68
2021/03/14 07:30:30;;;;;;;41.50;9.95;;;14.30;46.60;;;;;;5020699;28;20078;-67
2021/03/14 07:32:56;;;;;;;37.38;9.38;;;14.20;46.90;;;;;;5022932;28;20101;-67
2021/03/14 07:35:23;;;;;;;41.40;9.23;;;14.20;46.60;;;;;;5039597;28;20089;-68
2021/03/14 07:37:52;;;;;;;37.22;9.18;;;14.10;46.70;;;;;;5020579;28;20121;-66
2021/03/14 07:40:22;;;;;;;34.90;8.30;;;14.10;47.00;;;;;;5022240;28;20070;-66
2021/03/14 07:42:49;;;;;;;31.63;8.88;;;14.10;46.80;;;;;;5021880;28;20573;-67
2021/03/14 07:45:17;;;;;;;27.00;7.95;;;14.10;47.10;;;;;;5024162;28;20108;-67
2021/03/14 07:47:45;;;;;;;26.25;7.80;;;14.10;47.50;;;;;;5024114;28;20124;-69
2021/03/14 07:50:19;;;;;;;27.75;7.68;;;14.00;47.40;;;;;;5022381;28;20085;-67
2021/03/14 07:52:48;;;;;;;31.08;8.07;;;14.00;47.70;;;;;;5037506;28;20097;-67
2021/03/14 07:55:19;;;;;;;22.48;7.85;;;14.00;47.90;;;;;;5037014;28;20125;-68
2021/03/14 07:57:48;;;;;;;19.13;7.07;;;14.00;47.50;;;;;;5020964;28;20078;-67
2021/03/14 08:00:27;;;;;;;22.35;8.90;;;13.90;47.80;;;;;;5023677;28;20073;-66
2021/03/14 08:03:10;;;;;;;22.83;7.68;;;14.00;47.90;;;;;;5023309;28;20566;-67
2021/03/14 08:05:42;;;;;;;18.73;7.00;;;13.90;47.80;;;;;;5023705;28;20193;-67
2021/03/14 08:08:24;;;;;;;22.80;6.93;;;13.90;48.10;;;;;;5021811;28;20074;-65
2021/03/14 08:10:52;;;;;;;38.70;15.82;;;13.80;47.80;;;;;;5036438;28;20119;-66
2021/03/14 08:13:31;;;;;;;23.83;7.88;;;13.80;48.00;;;;;;5022150;28;20161;-67
2021/03/14 08:16:02;;;;;;;32.47;10.00;;;13.60;47.70;;;;;;5020244;28;20096;-66
2021/03/14 08:18:41;;;;;;;26.20;8.60;;;13.60;48.40;;;;;;5021991;28;20074;-65
2021/03/14 08:21:27;;;;;;;23.63;7.63;;;13.60;49.00;;;;;;5016714;28;20149;-67
2021/03/14 08:23:56;;;;;;;28.08;8.38;;;13.50;48.30;;;;;;5022997;28;20094;-68
2021/03/14 08:26:32;;;;;;;23.13;7.85;;;13.50;48.90;;;;;;5022750;28;20082;-66
2021/03/14 08:29:09;;;;;;;27.35;9.57;;;13.50;49.00;;;;;;5023116;28;20522;-66
2021/03/14 08:31:44;;;;;;;44.42;13.52;;;13.40;49.00;;;;;;5021484;28;20086;-66
2021/03/14 08:34:24;;;;;;;37.75;12.88;;;13.50;48.70;;;;;;5021846;28;20514;-66
2021/03/14 08:36:51;;;;;;;43.78;14.60;;;13.40;48.70;;;;;;5019500;28;20156;-66
2021/03/14 08:39:31;;;;;;;55.78;17.17;;;13.40;48.80;;;;;;5022333;28;20066;-65
2021/03/14 08:42:05;;;;;;;58.30;21.33;;;13.40;49.50;;;;;;5021014;28;20086;-65
2021/03/14 08:44:40;;;;;;;42.92;15.95;;;13.30;49.00;;;;;;5023559;28;20100;-65
2021/03/14 08:47:21;;;;;;;45.03;15.30;;;13.30;49.50;;;;;;5020940;28;20109;-65
2021/03/14 08:49:52;;;;;;;43.55;13.05;;;13.20;49.60;;;;;;5036571;28;20078;-66
2021/03/14 08:52:20;;;;;;;47.63;13.88;;;13.30;49.40;;;;;;5022439;28;20062;-69
2021/03/14 08:54:51;;;;;;;58.63;18.05;;;13.20;49.30;;;;;;5021014;28;20074;-66
2021/03/14 08:57:18;;;;;;;57.55;17.88;;;13.30;49.20;;;;;;5035456;28;20070;-65
2021/03/14 08:59:46;;;;;;;52.72;16.65;;;13.30;49.70;;;;;;5020486;28;20106;-66
2021/03/14 09:02:20;;;;;;;39.63;14.63;;;13.30;50.50;;;;;;5020110;28;20096;-66
2021/03/14 09:04:48;;;;;;;47.92;16.98;;;13.20;51.50;;;;;;5021551;28;20097;-66
2021/03/14 09:07:15;;;;;;;46.80;15.68;;;13.20;52.70;;;;;;5021260;28;20548;-67
2021/03/14 09:09:43;;;;;;;40.95;13.75;;;13.20;53.40;;;;;;5021274;28;20070;-66
2021/03/14 09:12:15;;;;;;;43.35;13.40;;;13.00;53.90;;;;;;5023108;28;20099;-66
2021/03/14 09:14:46;;;;;;;39.08;12.77;;;13.00;54.90;;;;;;5019486;28;20482;-66
2021/03/14 09:17:19;;;;;;;35.00;10.80;;;13.00;55.60;;;;;;5022161;28;20136;-65
2021/03/14 09:19:48;;;;;;;42.30;10.70;;;12.90;56.50;;;;;;5021489;28;20150;-64
2021/03/14 09:22:20;;;;;;;28.67;10.90;;;12.80;57.10;;;;;;5020902;28;20073;-65
2021/03/14 09:24:53;;;;;;;31.92;10.30;;;12.90;57.60;;;;;;5021714;28;20637;-65
2021/03/14 09:27:27;;;;;;;32.35;10.35;;;12.90;57.70;;;;;;5019358;28;20078;-65
2021/03/14 09:30:09;;;;;;;25.95;10.15;;;12.80;57.80;;;;;;5020262;28;20152;-67
2021/03/14 09:32:41;;;;;;;39.33;9.68;;;12.70;58.30;;;;;;5020164;28;20070;-66
2021/03/14 09:35:26;;;;;;;31.35;10.38;;;12.80;58.90;;;;;;5021877;28;20067;-65
2021/03/14 09:37:58;;;;;;;35.10;9.98;;;12.70;59.20;;;;;;5018139;28;20544;-66
2021/03/14 09:40:31;;;;;;;36.25;10.15;;;12.70;59.40;;;;;;5020127;28;20086;-66
2021/03/14 09:43:07;;;;;;;28.77;10.55;;;12.70;59.60;;;;;;5016895;28;20085;-66
2021/03/14 09:45:34;;;;;;;28.80;9.82;;;12.70;59.40;;;;;;5026391;28;20125;-65
2021/03/14 09:48:13;;;;;;;40.30;10.63;;;12.60;59.80;;;;;;5024258;28;20073;-66
2021/03/14 09:50:47;;;;;;;31.23;9.25;;;12.50;60.20;;;;;;5024333;28;20105;-66
2021/03/14 09:53:15;;;;;;;29.20;9.77;;;12.50;60.40;;;;;;5022459;28;20168;-66
2021/03/14 09:55:48;;;;;;;28.17;10.32;;;12.50;60.60;;;;;;5022502;28;20121;-66
2021/03/14 09:58:17;;;;;;;35.20;11.43;;;12.50;61.50;;;;;;5021638;28;20082;-66
2021/03/14 10:00:45;;;;;;;33.53;9.90;;;12.40;61.40;;;;;;5022554;28;20082;-66
2021/03/14 10:03:15;;;;;;;34.80;10.90;;;12.40;62.20;;;;;;5026436;28;20089;-66
2021/03/14 10:05:46;;;;;;;35.15;10.35;;;12.40;62.50;;;;;;5024642;28;20577;-66
2021/03/14 10:08:34;;;;;;;28.95;9.52;;;12.40;62.20;;;;;;5024432;28;20538;-65
2021/03/14 10:11:19;;;;;;;36.85;10.77;;;12.40;62.40;;;;;;5022338;28;20070;-66
2021/03/14 10:13:47;;;;;;;39.58;9.95;;;12.10;63.00;;;;;;5037456;28;20077;-66
2021/03/14 10:16:18;;;;;;;34.65;10.35;;;12.10;63.90;;;;;;5022745;28;20070;-65
2021/03/14 10:18:45;;;;;;;40.95;10.15;;;12.00;63.50;;;;;;5025746;28;20070;-65
2021/03/14 10:21:26;;;;;;;36.35;10.40;;;12.00;64.50;;;;;;5041546;28;20487;-66
2021/03/14 10:24:12;;;;;;;30.45;10.32;;;12.20;64.30;;;;;;5026401;28;20090;-65
2021/03/14 10:27:00;;;;;;;47.85;10.75;;;12.10;63.80;;;;;;5023344;28;20074;-66
2021/03/14 10:29:42;;;;;;;31.67;10.32;;;12.20;63.90;;;;;;5024123;28;20081;-66
2021/03/14 10:32:22;;;;;;;29.88;11.05;;;12.10;64.10;;;;;;5022933;28;20125;-66
2021/03/14 10:34:52;;;;;;;40.58;12.68;;;12.10;63.70;;;;;;5022039;28;20074;-66
2021/03/14 10:37:26;;;;;;;47.78;15.68;;;12.10;63.80;;;;;;5023033;28;20086;-65
2021/03/14 10:40:11;;;;;;;51.38;16.30;;;12.10;64.20;;;;;;5023600;28;20091;-66
2021/03/14 10:42:47;;;;;;;37.13;14.07;;;12.00;64.80;;;;;;5017329;28;20101;-66
2021/03/14 10:45:22;;;;;;;34.10;12.02;;;12.00;65.00;;;;;;5019232;28;20093;-66
2021/03/14 10:48:01;;;;;;;41.28;12.23;;;11.80;64.80;;;;;;5019483;28;20404;-66
2021/03/14 10:50:34;;;;;;;33.38;10.32;;;11.80;65.30;;;;;;5019945;28;20105;-66
2021/03/14 10:53:06;;;;;;;30.33;10.55;;;11.80;65.10;;;;;;5036893;28;20550;-66
2021/03/14 10:55:35;;;;;;;35.55;10.13;;;11.80;65.00;;;;;;5016397;28;20114;-66
2021/03/14 10:58:15;;;;;;;34.00;10.13;;;11.70;65.50;;;;;;5021296;28;20426;-66
2021/03/14 11:00:46;;;;;;;30.92;10.32;;;11.70;65.80;;;;;;5020520;28;20074;-66
2021/03/14 11:03:32;;;;;;;32.80;10.57;;;11.70;66.20;;;;;;5018532;28;20435;-66
2021/03/14 11:06:18;;;;;;;38.95;11.13;;;11.60;66.40;;;;;;5020852;28;20088;-65
2021/03/14 11:08:54;;;;;;;35.28;10.43;;;11.60;66.60;;;;;;5020682;28;20102;-66
2021/03/14 11:11:27;;;;;;;34.03;10.55;;;11.70;66.90;;;;;;5020597;28;20104;-66
2021/03/14 11:13:54;;;;;;;31.65;10.57;;;11.60;66.60;;;;;;5017719;28;20086;-66
2021/03/14 11:16:25;;;;;;;38.03;10.60;;;11.70;67.30;;;;;;5021504;28;20078;-65
2021/03/14 11:19:04;;;;;;;39.40;11.77;;;11.60;67.20;;;;;;5019156;28;20074;-65
2021/03/14 11:21:31;;;;;;;30.45;11.18;;;11.60;67.50;;;;;;5033737;28;20092;-65
2021/03/14 11:23:57;;;;;;;;;;;11.70;67.40;;;;;;5015858;28;20447;-66
2021/03/14 11:26:23;;;;;;;44.17;11.27;;;11.70;66.90;;;;;;5021661;28;19966;-64
2021/03/14 11:28:50;;;;;;;37.20;10.77;;;11.70;66.70;;;;;;5016035;28;20446;-67
2021/03/14 11:31:16;;;;;;;;;;;11.70;66.50;;;;;;5018144;28;20083;-66
2021/03/14 11:33:42;;;;;;;37.30;10.35;;;11.70;66.90;;;;;;5016324;28;20020;-66
2021/03/14 11:36:09;;;;;;;;;;;11.60;67.60;;;;;;5017488;28;20074;-65
2021/03/14 11:38:35;;;;;;;37.17;10.63;;;11.50;67.90;;;;;;5018093;28;20052;-66
2021/03/14 11:41:01;;;;;;;;;;;11.50;68.70;;;;;;5021652;28;20081;-65
2021/03/14 11:43:28;;;;;;;36.05;11.32;;;11.60;68.70;;;;;;5018233;28;19966;-65
2021/03/14 11:45:54;;;;;;;;;;;11.50;68.90;;;;;;5016394;28;20120;-66
2021/03/14 11:48:21;;;;;;;32.83;11.63;;;11.50;69.40;;;;;;5019724;28;20068;-66
2021/03/14 11:50:47;;;;;;;31.92;11.30;;;11.50;69.40;;;;;;5033425;28;20082;-66
2021/03/14 11:53:13;;;;;;;;;;;11.50;69.90;;;;;;5020843;28;20435;-67
2021/03/14 11:55:41;;;;;;;39.20;11.70;;;11.50;69.30;;;;;;5019862;28;20000;-66
2021/03/14 11:58:08;;;;;;;36.45;11.85;;;11.50;69.30;;;;;;5037362;28;20113;-66
2021/03/14 12:00:34;;;;;;;;;;;11.40;69.60;;;;;;5019294;28;20082;-67
2021/03/14 12:03:00;;;;;;;33.83;12.02;;;11.50;69.50;;;;;;5022814;28;20307;-66
2021/03/14 12:05:26;;;;;;;;;;;11.40;70.00;;;;;;5022265;28;20094;-65
2021/03/14 12:07:53;;;;;;;36.95;11.93;;;11.40;69.50;;;;;;5019940;28;19965;-66
2021/03/14 12:10:19;;;;;;;32.85;12.05;;;11.30;69.70;;;;;;5018744;28;20077;-66
2021/03/14 12:12:46;;;;;;;40.55;13.55;;;11.30;69.70;;;;;;5018536;28;20078;-66
2021/03/14 12:15:12;;;;;;;;;;;11.30;70.30;;;;;;5021488;28;20519;-66
2021/03/14 12:17:39;;;;;;;38.83;12.05;;;11.30;70.70;;;;;;5017886;28;19993;-67
2021/03/14 12:20:06;;;;;;;37.00;11.65;;;11.20;70.60;;;;;;5018876;28;20085;-66
2021/03/14 12:22:33;;;;;;;34.00;13.00;;;11.20;70.90;;;;;;5017840;28;20077;-66
2021/03/14 12:24:59;;;;;;;;;;;11.20;71.00;;;;;;5022476;28;20098;-66
2021/03/14 12:27:26;;;;;;;49.85;14.18;;;11.20;71.00;;;;;;5022388;28;20362;-66
2021/03/14 12:29:52;;;;;;;;;;;11.30;71.50;;;;;;5020561;28;20076;-66
2021/03/14 12:32:18;;;;;;;38.45;13.45;;;11.30;72.00;;;;;;5020491;28;20386;-66
2021/03/14 12:34:44;;;;;;;;;;;11.30;71.50;;;;;;5022245;28;20121;-67
2021/03/14 12:37:11;;;;;;;39.33;14.07;;;11.20;71.80;;;;;;5019610;28;20004;-65
2021/03/14 12:39:37;;;;;;;;;;;11.20;72.20;;;;;;5021902;28;20169;-66
2021/03/14 12:42:04;;;;;;;31.17;13.27;;;11.10;72.30;;;;;;5022238;28;19958;-65
2021/03/14 12:44:33;;;;;;;34.05;15.43;;;11.00;72.40;;;;;;5023086;28;20098;-64
2021/03/14 12:46:59;;;;;;;34.40;14.77;;;11.10;73.50;;;;;;5020218;28;20105;-66
2021/03/14 12:49:26;;;;;;;34.50;15.25;;;11.10;73.70;;;;;;5020769;28;20442;-66
2021/03/14 12:51:53;;;;;;;40.42;13.98;;;11.00;74.80;;;;;;5024335;28;20511;-66
2021/03/14 12:54:19;;;;;;;;;;;11.00;75.10;;;;;;5019381;28;20078;-65